Terminal Aerodrome Forecast
Issued by NWS

Home | Current Version | Previous Version | Text Only | Print | Product List | Glossary On
Versions: 1 2 3 4 5 6 7 8 9 10 11 12 13
378
FTUS45 KTFX 210520
TAFBZN
TAF
KBZN 210520Z 2106/2206 15005KT P6SM SCT080 BKN180
     FM211200 VRB05KT P6SM VCFG FEW010 SCT040 BKN070
     FM211800 VRB05KT P6SM VCSH SCT025 OVC040 PROB30 2200/2206
      -SHSN=

USA.gov is the U.S. government's official web portal to all federal, state and local government web resources and services.